createdAt,value
2017-05-11T00:00:42.933Z,0
2017-05-11T00:01:53.942Z,0
2017-05-11T00:03:04.983Z,0
2017-05-11T00:04:15.982Z,0
2017-05-11T00:05:27.188Z,0
2017-05-11T00:06:38.206Z,0
2017-05-11T00:07:49.212Z,0
2017-05-11T00:09:00.422Z,0
2017-05-11T00:10:11.474Z,0
2017-05-11T00:11:22.675Z,0
2017-05-11T00:12:33.685Z,0
2017-05-11T00:13:44.680Z,0
2017-05-11T00:14:55.681Z,0
2017-05-11T00:16:06.679Z,0
2017-05-11T00:17:17.717Z,0
2017-05-11T00:18:28.721Z,0
2017-05-11T00:19:39.724Z,0
2017-05-11T00:20:50.787Z,0
2017-05-11T00:22:01.802Z,0
2017-05-11T00:23:12.798Z,0
2017-05-11T00:24:24.013Z,0
2017-05-11T00:25:35.217Z,0
2017-05-11T00:26:46.229Z,0
2017-05-11T00:27:57.245Z,0
2017-05-11T00:29:08.457Z,0
2017-05-11T00:30:19.655Z,0
2017-05-11T00:31:30.918Z,0
2017-05-11T00:32:41.910Z,0
2017-05-11T00:33:52.963Z,0
2017-05-11T00:35:04.170Z,0
2017-05-11T00:36:15.611Z,0
2017-05-11T00:37:26.614Z,0
2017-05-11T00:38:37.620Z,0
2017-05-11T00:39:48.626Z,0
2017-05-11T00:40:59.652Z,0
2017-05-11T00:42:10.701Z,0
2017-05-11T00:43:21.714Z,0
2017-05-11T00:44:32.724Z,0
2017-05-11T00:45:43.730Z,0
2017-05-11T00:46:54.738Z,0
2017-05-11T00:48:05.990Z,0
2017-05-11T00:49:16.990Z,0
2017-05-11T00:50:27.997Z,0
2017-05-11T00:51:39.003Z,0
2017-05-11T00:52:50.207Z,0
2017-05-11T00:54:01.215Z,0
2017-05-11T00:55:12.209Z,0
2017-05-11T00:56:23.418Z,0
2017-05-11T00:57:34.427Z,0
2017-05-11T00:58:45.429Z,0
2017-05-11T00:59:56.462Z,0
2017-05-11T01:01:07.461Z,0
2017-05-11T01:02:18.466Z,0
2017-05-11T01:03:29.666Z,0
2017-05-11T01:04:40.724Z,0
2017-05-11T01:05:51.933Z,0
2017-05-11T01:07:03.131Z,0
2017-05-11T01:08:14.149Z,0
2017-05-11T01:09:25.163Z,0
2017-05-11T01:10:36.180Z,0
2017-05-11T01:11:47.173Z,0
2017-05-11T01:12:58.392Z,0
2017-05-11T01:14:09.605Z,0
2017-05-11T01:15:20.668Z,0
2017-05-11T01:16:31.668Z,0
2017-05-11T01:17:42.657Z,0
2017-05-11T01:18:53.707Z,0
2017-05-11T01:20:04.705Z,0
2017-05-11T01:21:15.707Z,0
2017-05-11T01:22:26.712Z,0
2017-05-11T01:23:37.960Z,0
2017-05-11T01:24:48.979Z,0
2017-05-11T01:26:00.040Z,0
2017-05-11T01:27:11.056Z,0
2017-05-11T01:28:22.068Z,0
2017-05-11T01:29:33.273Z,0
2017-05-11T01:30:44.279Z,0
2017-05-11T01:31:55.268Z,0
2017-05-11T01:33:06.310Z,0
2017-05-11T01:34:17.321Z,0
2017-05-11T01:35:28.322Z,0
2017-05-11T01:36:39.585Z,0
2017-05-11T01:37:50.605Z,0
2017-05-11T01:39:01.805Z,0
2017-05-11T01:40:12.813Z,0
2017-05-11T01:41:23.813Z,0
2017-05-11T01:42:34.827Z,0
2017-05-11T01:43:46.042Z,0
2017-05-11T01:44:57.035Z,0
2017-05-11T01:46:08.043Z,0
2017-05-11T01:47:19.302Z,0
2017-05-11T01:48:30.310Z,0
2017-05-11T01:49:41.311Z,0
2017-05-11T01:50:52.330Z,0
2017-05-11T01:52:03.547Z,0
2017-05-11T01:53:14.608Z,0
2017-05-11T01:54:25.620Z,0
2017-05-11T01:55:36.827Z,0
2017-05-11T01:56:47.831Z,0
2017-05-11T01:57:58.840Z,0
2017-05-11T01:59:10.057Z,0
2017-05-11T02:00:21.263Z,0
2017-05-11T02:01:32.270Z,0
2017-05-11T02:02:43.270Z,0
2017-05-11T02:03:54.282Z,0
2017-05-11T02:05:05.309Z,0
2017-05-11T02:06:16.313Z,0
2017-05-11T02:07:27.334Z,0
2017-05-11T02:08:38.361Z,0
2017-05-11T02:09:49.630Z,0
2017-05-11T02:11:00.643Z,0
2017-05-11T02:12:11.658Z,0
2017-05-11T02:13:22.658Z,0
2017-05-11T02:14:33.879Z,0
2017-05-11T02:15:44.889Z,0
2017-05-11T02:16:55.899Z,0
2017-05-11T02:18:06.911Z,0
2017-05-11T02:19:18.324Z,0
2017-05-11T02:20:29.376Z,0
2017-05-11T02:21:40.380Z,0
2017-05-11T02:22:51.402Z,0
2017-05-11T02:24:02.614Z,0
2017-05-11T02:25:13.610Z,0
2017-05-11T02:26:24.815Z,0
2017-05-11T02:27:35.821Z,0
2017-05-11T02:28:46.823Z,0
2017-05-11T02:29:57.828Z,0
2017-05-11T02:31:09.086Z,0
2017-05-11T02:32:20.095Z,0
2017-05-11T02:33:31.099Z,0
2017-05-11T02:34:42.104Z,0
2017-05-11T02:35:53.114Z,0
2017-05-11T02:37:04.125Z,0
2017-05-11T02:38:15.122Z,0
2017-05-11T02:39:26.342Z,0
2017-05-11T02:40:37.340Z,0
2017-05-11T02:41:48.388Z,0
2017-05-11T02:42:59.775Z,0
2017-05-11T02:44:10.977Z,0
2017-05-11T02:45:21.987Z,0
2017-05-11T02:46:32.983Z,0
2017-05-11T02:47:43.989Z,0
2017-05-11T02:48:54.999Z,0
2017-05-11T02:50:05.999Z,0
2017-05-11T02:51:17.000Z,0
2017-05-11T02:52:28.248Z,0
2017-05-11T02:53:39.455Z,0
2017-05-11T02:54:50.455Z,0
2017-05-11T02:56:01.655Z,0
2017-05-11T02:57:12.659Z,0
2017-05-11T02:58:23.732Z,0
2017-05-11T02:59:34.736Z,0
2017-05-11T03:00:45.944Z,0
2017-05-11T03:01:57.154Z,0
2017-05-11T03:03:08.162Z,0
2017-05-11T03:04:19.159Z,0
2017-05-11T03:05:30.169Z,0
2017-05-11T03:06:41.173Z,0
2017-05-11T03:07:52.172Z,0
2017-05-11T03:09:03.170Z,0
2017-05-11T03:10:14.578Z,0
2017-05-11T03:11:25.589Z,0
2017-05-11T03:12:36.799Z,0
2017-05-11T03:13:47.811Z,0
2017-05-11T03:14:58.904Z,0
2017-05-11T03:16:10.114Z,0
2017-05-11T03:17:21.539Z,0
2017-05-11T03:18:32.544Z,0
2017-05-11T03:19:43.745Z,0
2017-05-11T03:20:54.754Z,0
2017-05-11T03:22:05.757Z,0
2017-05-11T03:23:16.757Z,0
2017-05-11T03:24:27.772Z,0
2017-05-11T03:25:38.770Z,0
2017-05-11T03:26:49.772Z,0
2017-05-11T03:28:00.968Z,0
2017-05-11T03:29:12.173Z,0
2017-05-11T03:30:23.222Z,0
2017-05-11T03:31:34.424Z,0
2017-05-11T03:32:45.628Z,0
2017-05-11T03:33:56.641Z,0
2017-05-11T03:35:07.848Z,0
2017-05-11T03:36:18.855Z,5
2017-05-11T03:37:30.067Z,5
2017-05-11T03:38:41.080Z,5
2017-05-11T03:39:52.297Z,5
2017-05-11T03:41:03.364Z,5
2017-05-11T03:42:14.349Z,5
2017-05-11T03:43:25.352Z,5
2017-05-11T03:44:36.345Z,10
2017-05-11T03:45:47.734Z,10
2017-05-11T03:46:59.134Z,10
2017-05-11T03:48:10.185Z,10
2017-05-11T03:49:21.191Z,10
2017-05-11T03:50:32.184Z,15
2017-05-11T03:51:43.433Z,15
2017-05-11T03:52:54.445Z,15
2017-05-11T03:54:05.455Z,15
2017-05-11T03:55:16.652Z,20
2017-05-11T03:56:27.666Z,20
2017-05-11T03:57:38.868Z,20
2017-05-11T03:58:49.863Z,25
2017-05-11T04:00:00.916Z,25
2017-05-11T04:01:12.114Z,25
2017-05-11T04:02:23.165Z,30
2017-05-11T04:03:34.172Z,35
2017-05-11T04:04:45.207Z,35
2017-05-11T04:05:56.210Z,40
2017-05-11T04:07:07.229Z,40
2017-05-11T04:08:18.690Z,45
2017-05-11T04:09:29.697Z,55
2017-05-11T04:10:40.711Z,50
2017-05-11T04:11:51.709Z,60
2017-05-11T04:13:02.973Z,70
2017-05-11T04:14:13.979Z,70
2017-05-11T04:15:24.978Z,80
2017-05-11T04:16:35.988Z,105
2017-05-11T04:17:46.984Z,135
2017-05-11T04:18:57.983Z,115
2017-05-11T04:20:08.997Z,170
2017-05-11T04:21:20.231Z,250
2017-05-11T04:22:31.249Z,285
2017-05-11T04:23:42.303Z,300
2017-05-11T04:24:53.308Z,315
2017-05-11T04:26:04.307Z,320
2017-05-11T04:27:15.301Z,325
2017-05-11T04:28:26.302Z,350
2017-05-11T04:29:37.316Z,370
2017-05-11T04:30:48.320Z,390
2017-05-11T04:31:59.521Z,410
2017-05-11T04:33:10.534Z,435
2017-05-11T04:34:21.639Z,455
2017-05-11T04:35:32.644Z,475
2017-05-11T04:36:43.638Z,485
2017-05-11T04:37:54.850Z,495
2017-05-11T04:39:05.851Z,410
2017-05-11T04:40:16.856Z,330
2017-05-11T04:41:27.856Z,305
2017-05-11T04:42:39.055Z,275
2017-05-11T04:43:50.056Z,245
2017-05-11T04:45:01.310Z,245
2017-05-11T04:46:12.538Z,290
2017-05-11T04:47:23.728Z,355
2017-05-11T04:48:34.736Z,360
2017-05-11T04:49:45.740Z,345
2017-05-11T04:50:56.932Z,495
2017-05-11T04:52:08.136Z,490
2017-05-11T04:53:19.345Z,450
2017-05-11T04:54:30.359Z,415
2017-05-11T04:55:41.416Z,355
2017-05-11T04:56:52.420Z,400
2017-05-11T04:58:03.420Z,270
2017-05-11T04:59:14.433Z,175
2017-05-11T05:00:25.434Z,175
2017-05-11T05:01:36.484Z,220
2017-05-11T05:02:47.692Z,270
2017-05-11T05:03:58.695Z,205
2017-05-11T05:05:09.707Z,405
2017-05-11T05:06:20.762Z,420
2017-05-11T05:07:31.762Z,380
2017-05-11T05:08:42.785Z,355
2017-05-11T05:09:53.816Z,255
2017-05-11T05:11:05.024Z,555
2017-05-11T05:12:16.040Z,485
2017-05-11T05:13:27.260Z,575
2017-05-11T05:14:38.264Z,760
2017-05-11T05:15:49.264Z,905
2017-05-11T05:17:00.274Z,1040
2017-05-11T05:18:11.275Z,710
2017-05-11T05:19:22.277Z,405
2017-05-11T05:20:33.279Z,545
2017-05-11T05:21:44.287Z,620
2017-05-11T05:22:55.343Z,235
2017-05-11T05:24:06.350Z,230
2017-05-11T05:25:17.363Z,205
2017-05-11T05:26:28.365Z,210
2017-05-11T05:27:39.577Z,210
2017-05-11T05:28:50.579Z,210
2017-05-11T05:30:01.581Z,215
2017-05-11T05:31:12.590Z,220
2017-05-11T05:32:23.590Z,260
2017-05-11T05:33:34.856Z,425
2017-05-11T05:34:45.874Z,515
2017-05-11T05:35:56.882Z,450
2017-05-11T05:37:07.900Z,420
2017-05-11T05:38:18.916Z,590
2017-05-11T05:39:30.178Z,395
2017-05-11T05:40:41.208Z,310
2017-05-11T05:41:52.217Z,265
2017-05-11T05:43:03.218Z,285
2017-05-11T05:44:14.286Z,295
2017-05-11T05:45:25.298Z,290
2017-05-11T05:46:36.311Z,320
2017-05-11T05:47:47.322Z,310
2017-05-11T05:48:58.334Z,490
2017-05-11T05:50:09.533Z,380
2017-05-11T05:51:20.528Z,410
2017-05-11T05:52:31.540Z,475
2017-05-11T05:53:42.547Z,345
2017-05-11T05:54:53.797Z,435
2017-05-11T05:56:04.805Z,270
2017-05-11T05:57:16.045Z,350
2017-05-11T05:58:27.049Z,905
2017-05-11T05:59:38.266Z,1585
2017-05-11T06:00:49.267Z,1740
2017-05-11T06:02:00.257Z,1630
2017-05-11T06:03:11.271Z,1695
2017-05-11T06:04:22.311Z,1675
2017-05-11T06:05:33.367Z,1780
2017-05-11T06:06:44.388Z,1420
2017-05-11T06:07:55.390Z,1550
2017-05-11T06:09:06.392Z,1495
2017-05-11T06:10:17.430Z,1805
2017-05-11T06:11:28.450Z,1840
2017-05-11T06:12:39.473Z,1805
2017-05-11T06:13:50.700Z,1825
2017-05-11T06:15:01.718Z,1850
2017-05-11T06:16:12.778Z,1765
2017-05-11T06:17:23.782Z,1845
2017-05-11T06:18:34.797Z,1900
2017-05-11T06:19:45.822Z,1930
2017-05-11T06:20:56.873Z,1940
2017-05-11T06:22:08.096Z,1900
2017-05-11T06:23:19.119Z,1865
2017-05-11T06:24:30.342Z,1910
2017-05-11T06:25:41.568Z,1895
2017-05-11T06:26:52.582Z,1895
2017-05-11T06:28:03.597Z,1985
2017-05-11T06:29:14.631Z,2030
2017-05-11T06:30:25.646Z,1615
2017-05-11T06:31:36.866Z,2045
2017-05-11T06:32:47.937Z,2075
2017-05-11T06:33:58.957Z,2130
2017-05-11T06:35:09.969Z,2120
2017-05-11T06:36:20.985Z,2145
2017-05-11T06:37:32.003Z,2195
2017-05-11T06:38:43.028Z,1950
2017-05-11T06:39:54.246Z,2165
2017-05-11T06:41:05.265Z,2120
2017-05-11T06:42:16.289Z,2135
2017-05-11T06:43:27.367Z,2090
2017-05-11T06:44:38.393Z,2120
2017-05-11T06:45:49.404Z,2095
2017-05-11T06:47:00.428Z,2085
2017-05-11T06:48:11.442Z,2145
2017-05-11T06:49:22.469Z,2120
2017-05-11T06:50:33.490Z,2150
2017-05-11T06:51:44.515Z,1975
2017-05-11T06:52:55.549Z,2130
2017-05-11T06:54:06.639Z,2240
2017-05-11T06:55:17.672Z,2290
2017-05-11T06:56:28.898Z,2265
2017-05-11T06:57:39.912Z,2260
2017-05-11T06:58:50.934Z,2170
2017-05-11T07:00:01.968Z,2170
2017-05-11T07:01:12.990Z,2295
2017-05-11T07:02:24.017Z,2415
2017-05-11T07:03:35.062Z,2395
2017-05-11T07:04:46.157Z,2405
2017-05-11T07:05:57.183Z,2410
2017-05-11T07:07:08.413Z,2175
2017-05-11T07:08:19.640Z,2130
2017-05-11T07:09:30.873Z,2140
2017-05-11T07:10:41.901Z,2190
2017-05-11T07:11:53.139Z,2205
2017-05-11T07:13:04.166Z,2205
2017-05-11T07:14:15.221Z,2260
2017-05-11T07:15:26.292Z,2300
2017-05-11T07:16:37.320Z,2000
2017-05-11T07:17:48.336Z,2225
2017-05-11T07:18:59.354Z,2165
2017-05-11T07:20:10.377Z,2130
2017-05-11T07:21:21.511Z,2125
2017-05-11T07:22:32.533Z,1980
2017-05-11T07:23:43.561Z,2015
2017-05-11T07:24:54.788Z,2150
2017-05-11T07:26:05.821Z,2270
2017-05-11T07:27:16.844Z,2275
2017-05-11T07:28:27.871Z,2310
2017-05-11T07:29:38.917Z,2435
2017-05-11T07:30:50.147Z,2460
2017-05-11T07:32:01.172Z,2360
2017-05-11T07:33:12.211Z,2245
2017-05-11T07:34:23.249Z,2375
2017-05-11T07:35:34.272Z,2245
2017-05-11T07:36:45.295Z,2190
2017-05-11T07:37:56.575Z,2320
2017-05-11T07:39:07.601Z,2275
2017-05-11T07:40:18.819Z,2180
2017-05-11T07:41:29.855Z,2295
2017-05-11T07:42:40.872Z,2370
2017-05-11T07:43:51.889Z,2250
2017-05-11T07:45:02.918Z,2155
2017-05-11T07:46:13.952Z,2205
2017-05-11T07:47:25.391Z,2200
2017-05-11T07:48:36.460Z,2120
2017-05-11T07:49:47.689Z,2070
2017-05-11T07:50:59.113Z,1980
2017-05-11T07:52:10.347Z,1300
2017-05-11T07:53:21.383Z,1480
2017-05-11T07:54:32.421Z,1740
2017-05-11T07:55:43.444Z,1910
2017-05-11T07:56:54.482Z,2160
2017-05-11T07:58:05.518Z,1880
2017-05-11T07:59:16.589Z,2030
2017-05-11T08:00:27.607Z,1890
2017-05-11T08:01:38.626Z,2105
2017-05-11T08:02:49.652Z,1880
2017-05-11T08:04:00.670Z,1780
2017-05-11T08:05:11.897Z,2530
2017-05-11T08:06:22.913Z,2410
2017-05-11T08:07:33.933Z,2520
2017-05-11T08:08:44.961Z,2725
2017-05-11T08:09:56.253Z,2695
2017-05-11T08:11:07.268Z,2575
2017-05-11T08:12:18.291Z,2595
2017-05-11T08:13:29.322Z,2455
2017-05-11T08:14:40.357Z,2465
2017-05-11T08:15:51.389Z,2615
2017-05-11T08:17:02.414Z,2610
2017-05-11T08:18:13.434Z,2725
2017-05-11T08:19:24.463Z,2670
2017-05-11T08:20:35.474Z,2605
2017-05-11T08:21:46.906Z,2545
2017-05-11T08:22:57.939Z,2700
2017-05-11T08:24:08.958Z,2710
2017-05-11T08:25:20.034Z,2655
2017-05-11T08:26:31.061Z,2680
2017-05-11T08:27:42.526Z,2685
2017-05-11T08:28:53.565Z,2755
2017-05-11T08:30:04.594Z,2690
2017-05-11T08:31:15.624Z,2705
2017-05-11T08:32:26.855Z,2730
2017-05-11T08:33:37.887Z,2835
2017-05-11T08:34:48.912Z,2735
2017-05-11T08:35:59.935Z,2740
2017-05-11T08:37:10.966Z,2755
2017-05-11T08:38:21.990Z,2725
2017-05-11T08:39:33.011Z,2875
2017-05-11T08:40:44.249Z,2740
2017-05-11T08:41:55.343Z,2555
2017-05-11T08:43:06.373Z,2550
2017-05-11T08:44:17.413Z,2680
2017-05-11T08:45:28.445Z,2860
2017-05-11T08:46:39.474Z,2850
2017-05-11T08:47:50.512Z,2700
2017-05-11T08:49:01.547Z,2550
2017-05-11T08:50:12.574Z,2520
2017-05-11T08:51:23.604Z,2425
2017-05-11T08:52:34.670Z,2550
2017-05-11T08:53:45.712Z,2660
2017-05-11T08:54:56.731Z,2640
2017-05-11T08:56:07.758Z,2670
2017-05-11T08:57:18.990Z,2525
2017-05-11T08:58:30.418Z,2505
2017-05-11T08:59:41.448Z,2630
2017-05-11T09:00:52.688Z,2560
2017-05-11T09:02:04.133Z,2660
2017-05-11T09:03:15.222Z,2635
2017-05-11T09:04:26.657Z,2570
2017-05-11T09:05:37.689Z,2480
2017-05-11T09:06:48.719Z,2670
2017-05-11T09:07:59.945Z,2605
2017-05-11T09:09:11.020Z,2505
2017-05-11T09:10:22.052Z,2605
2017-05-11T09:11:33.287Z,2640
2017-05-11T09:12:44.323Z,2505
2017-05-11T09:13:55.408Z,2575
2017-05-11T09:15:06.439Z,2665
2017-05-11T09:16:17.695Z,2535
2017-05-11T09:17:28.725Z,2335
2017-05-11T09:18:39.746Z,2545
2017-05-11T09:19:54.439Z,2585
2017-05-11T09:21:10.971Z,2415
2017-05-11T09:22:22.662Z,2385
2017-05-11T09:23:35.750Z,2495
2017-05-11T09:24:48.434Z,2525
2017-05-11T09:25:59.754Z,2535
2017-05-11T09:27:13.998Z,2565
2017-05-11T09:28:28.659Z,2505
2017-05-11T09:29:41.797Z,2320
2017-05-11T09:30:56.187Z,2355
2017-05-11T09:32:11.665Z,2445
2017-05-11T09:33:25.848Z,2595
2017-05-11T09:34:39.846Z,2530
2017-05-11T09:35:51.774Z,2345
2017-05-11T09:37:03.720Z,2260
2017-05-11T09:38:14.890Z,2470
2017-05-11T09:39:28.466Z,2475
2017-05-11T09:40:40.175Z,2485
2017-05-11T09:41:51.224Z,2400
2017-05-11T09:43:04.262Z,2275
2017-05-11T09:44:15.960Z,2220
2017-05-11T09:45:27.076Z,2390
2017-05-11T09:46:38.118Z,2445
2017-05-11T09:47:49.161Z,2405
2017-05-11T09:49:00.434Z,2465
2017-05-11T09:50:11.509Z,2500
2017-05-11T09:51:22.784Z,2370
2017-05-11T09:52:33.895Z,2450
2017-05-11T09:53:44.956Z,2435
2017-05-11T09:54:56.054Z,2345
2017-05-11T09:56:07.376Z,2285
2017-05-11T09:57:19.376Z,2255
2017-05-11T09:58:30.474Z,2230
2017-05-11T09:59:42.206Z,2325
2017-05-11T10:00:53.263Z,2205
2017-05-11T10:02:04.451Z,2255
2017-05-11T10:03:15.484Z,2270
2017-05-11T10:04:26.548Z,2315
2017-05-11T10:05:37.644Z,2385
2017-05-11T10:06:48.945Z,2255
2017-05-11T10:08:00.063Z,2310
2017-05-11T10:09:11.868Z,2290
2017-05-11T10:10:23.309Z,2230
2017-05-11T10:11:34.359Z,2205
2017-05-11T10:12:45.433Z,2110
2017-05-11T10:13:56.608Z,2105
2017-05-11T10:15:07.635Z,2065
2017-05-11T10:16:18.671Z,2090
2017-05-11T10:17:29.854Z,2105
2017-05-11T10:18:40.967Z,2120
2017-05-11T10:19:52.286Z,2090
2017-05-11T10:21:03.740Z,2175
2017-05-11T10:22:14.811Z,2115
2017-05-11T10:23:26.529Z,2195
2017-05-11T10:24:39.282Z,1910
2017-05-11T10:25:50.618Z,1615
2017-05-11T10:27:01.687Z,1670
2017-05-11T10:28:12.993Z,1415
2017-05-11T10:29:25.317Z,2030
2017-05-11T10:30:36.570Z,2065
2017-05-11T10:31:47.813Z,2105
2017-05-11T10:32:58.863Z,2135
2017-05-11T10:34:11.820Z,2130
2017-05-11T10:35:26.817Z,2235
2017-05-11T10:36:38.066Z,2415
2017-05-11T10:37:49.085Z,2690
2017-05-11T10:39:00.164Z,2760
2017-05-11T10:40:11.198Z,2430
2017-05-11T10:41:22.225Z,1740
2017-05-11T10:42:33.254Z,1185
2017-05-11T10:43:44.278Z,1000
2017-05-11T10:44:55.343Z,985
2017-05-11T10:46:06.363Z,990
2017-05-11T10:47:17.399Z,1000
2017-05-11T10:48:28.445Z,1025
2017-05-11T10:49:39.484Z,1035
2017-05-11T10:50:50.509Z,1020
2017-05-11T10:52:01.551Z,1165
2017-05-11T10:53:12.619Z,1215
2017-05-11T10:54:23.642Z,1235
2017-05-11T10:55:34.661Z,1285
2017-05-11T10:56:45.892Z,1430
2017-05-11T10:57:56.970Z,1475
2017-05-11T10:59:07.999Z,1540
2017-05-11T11:00:19.078Z,1575
2017-05-11T11:01:30.110Z,1610
2017-05-11T11:02:41.141Z,1570
2017-05-11T11:03:52.174Z,1640
2017-05-11T11:05:03.405Z,1600
2017-05-11T11:06:14.436Z,1605
2017-05-11T11:07:25.663Z,1630
2017-05-11T11:08:36.681Z,1640
2017-05-11T11:09:47.924Z,1610
2017-05-11T11:10:58.996Z,1565
2017-05-11T11:12:10.220Z,1530
2017-05-11T11:13:21.238Z,1590
2017-05-11T11:14:32.477Z,1565
2017-05-11T11:15:43.513Z,1545
2017-05-11T11:16:54.756Z,1460
2017-05-11T11:18:05.788Z,1520
2017-05-11T11:19:16.813Z,1515
2017-05-11T11:20:27.857Z,1505
2017-05-11T11:21:38.931Z,1400
2017-05-11T11:22:49.958Z,1410
2017-05-11T11:24:00.968Z,1415
2017-05-11T11:25:12.004Z,1395
2017-05-11T11:26:23.025Z,1365
2017-05-11T11:27:34.254Z,1445
2017-05-11T11:28:45.276Z,1435
2017-05-11T11:29:56.296Z,1445
2017-05-11T11:31:07.518Z,1395
2017-05-11T11:32:18.593Z,1380
2017-05-11T11:33:29.612Z,1350
2017-05-11T11:34:40.847Z,1350
2017-05-11T11:35:51.928Z,1325
2017-05-11T11:37:02.957Z,1320
2017-05-11T11:38:13.984Z,1295
2017-05-11T11:39:25.405Z,1300
2017-05-11T11:40:36.626Z,1275
2017-05-11T11:41:47.662Z,1315
2017-05-11T11:42:58.743Z,1275
2017-05-11T11:44:09.773Z,1230
2017-05-11T11:45:20.801Z,1230
2017-05-11T11:46:31.825Z,1185
2017-05-11T11:47:42.847Z,1060
2017-05-11T11:48:54.119Z,890
2017-05-11T11:50:05.184Z,840
2017-05-11T11:51:16.215Z,655
2017-05-11T11:52:27.443Z,540
2017-05-11T11:53:38.519Z,535
2017-05-11T11:54:49.961Z,540
2017-05-11T11:56:00.987Z,610
2017-05-11T11:57:12.016Z,875
2017-05-11T11:58:23.243Z,895
2017-05-11T11:59:34.283Z,705
2017-05-11T12:00:45.303Z,925
2017-05-11T12:01:56.319Z,960
2017-05-11T12:03:07.546Z,930
2017-05-11T12:04:18.791Z,1050
2017-05-11T12:05:29.819Z,1095
2017-05-11T12:06:41.044Z,1110
2017-05-11T12:07:52.075Z,1100
2017-05-11T12:09:03.100Z,1135
2017-05-11T12:10:14.170Z,650
2017-05-11T12:11:25.195Z,595
2017-05-11T12:12:36.231Z,625
2017-05-11T12:13:47.259Z,665
2017-05-11T12:14:58.277Z,695
2017-05-11T12:16:09.301Z,775
2017-05-11T12:17:20.330Z,665
2017-05-11T12:18:31.346Z,705
2017-05-11T12:19:42.362Z,695
2017-05-11T12:20:53.440Z,685
2017-05-11T12:22:04.468Z,675
2017-05-11T12:23:15.486Z,740
2017-05-11T12:24:26.746Z,640
2017-05-11T12:25:37.762Z,620
2017-05-11T12:26:48.774Z,610
2017-05-11T12:27:59.793Z,600
2017-05-11T12:29:10.819Z,540
2017-05-11T12:30:21.835Z,530
2017-05-11T12:31:33.094Z,535
2017-05-11T12:32:44.329Z,560
2017-05-11T12:33:55.355Z,595
2017-05-11T12:35:06.372Z,575
2017-05-11T12:36:17.816Z,580
2017-05-11T12:37:28.845Z,580
2017-05-11T12:38:39.861Z,575
2017-05-11T12:39:50.881Z,575
2017-05-11T12:41:01.909Z,535
2017-05-11T12:42:12.978Z,580
2017-05-11T12:43:24.003Z,575
2017-05-11T12:44:35.029Z,460
2017-05-11T12:45:46.058Z,440
2017-05-11T12:46:57.081Z,440
2017-05-11T12:48:08.108Z,430
2017-05-11T12:49:19.132Z,430
2017-05-11T12:50:30.150Z,430
2017-05-11T12:51:41.175Z,430
2017-05-11T12:52:52.239Z,445
2017-05-11T12:54:03.246Z,440
2017-05-11T12:55:14.331Z,455
2017-05-11T12:56:25.552Z,465
2017-05-11T12:57:36.983Z,500
2017-05-11T12:58:48.193Z,515
2017-05-11T12:59:59.611Z,540
2017-05-11T13:01:11.030Z,630
2017-05-11T13:02:22.051Z,555
2017-05-11T13:03:33.274Z,540
2017-05-11T13:04:44.485Z,515
2017-05-11T13:05:55.516Z,470
2017-05-11T13:07:06.537Z,435
2017-05-11T13:08:17.556Z,400
2017-05-11T13:09:28.574Z,380
2017-05-11T13:10:39.802Z,370
2017-05-11T13:11:50.822Z,390
2017-05-11T13:13:01.874Z,420
2017-05-11T13:14:13.141Z,435
2017-05-11T13:15:24.150Z,430
2017-05-11T13:16:35.170Z,430
2017-05-11T13:17:46.623Z,430
2017-05-11T13:18:57.643Z,495
2017-05-11T13:20:08.660Z,605
2017-05-11T13:21:19.679Z,510
2017-05-11T13:22:30.698Z,480
2017-05-11T13:23:41.712Z,445
2017-05-11T13:24:52.773Z,435
2017-05-11T13:26:03.805Z,425
2017-05-11T13:27:14.830Z,400
2017-05-11T13:28:25.889Z,510
2017-05-11T13:29:36.925Z,410
2017-05-11T13:30:47.945Z,370
2017-05-11T13:31:58.969Z,360
2017-05-11T13:33:09.990Z,365
2017-05-11T13:34:21.048Z,540
2017-05-11T13:35:32.127Z,470
2017-05-11T13:36:43.148Z,570
2017-05-11T13:37:54.165Z,575
2017-05-11T13:39:05.186Z,540
2017-05-11T13:40:16.201Z,435
2017-05-11T13:41:27.269Z,585
2017-05-11T13:42:38.294Z,575
2017-05-11T13:43:49.310Z,480
2017-05-11T13:45:00.336Z,575
2017-05-11T13:46:11.400Z,570
2017-05-11T13:47:22.629Z,570
2017-05-11T13:48:33.657Z,560
2017-05-11T13:49:44.683Z,415
2017-05-11T13:50:55.713Z,430
2017-05-11T13:52:06.746Z,455
2017-05-11T13:53:17.972Z,755
2017-05-11T13:54:29.003Z,675
2017-05-11T13:55:40.025Z,705
2017-05-11T13:56:51.340Z,615
2017-05-11T13:58:02.564Z,445
2017-05-11T13:59:13.580Z,450
2017-05-11T14:00:24.604Z,470
2017-05-11T14:01:35.626Z,505
2017-05-11T14:02:46.646Z,550
2017-05-11T14:03:57.671Z,490
2017-05-11T14:05:08.703Z,440
2017-05-11T14:06:19.730Z,430
2017-05-11T14:07:30.801Z,425
2017-05-11T14:08:41.823Z,505
2017-05-11T14:09:52.859Z,685
2017-05-11T14:11:03.898Z,660
2017-05-11T14:12:14.914Z,570
2017-05-11T14:13:25.938Z,395
2017-05-11T14:14:36.955Z,385
2017-05-11T14:15:48.190Z,385
2017-05-11T14:16:59.208Z,395
2017-05-11T14:18:10.233Z,415
2017-05-11T14:19:21.243Z,425
2017-05-11T14:20:32.263Z,420
2017-05-11T14:21:43.277Z,410
2017-05-11T14:22:54.301Z,390
2017-05-11T14:24:05.583Z,380
2017-05-11T14:25:16.608Z,390
2017-05-11T14:26:27.637Z,395
2017-05-11T14:27:38.655Z,420
2017-05-11T14:28:49.869Z,445
2017-05-11T14:30:01.086Z,520
2017-05-11T14:31:12.340Z,465
2017-05-11T14:32:23.351Z,425
2017-05-11T14:33:34.356Z,400
2017-05-11T14:34:45.422Z,380
2017-05-11T14:35:56.441Z,365
2017-05-11T14:37:07.453Z,355
2017-05-11T14:38:18.532Z,335
2017-05-11T14:39:29.593Z,310
2017-05-11T14:40:40.824Z,295
2017-05-11T14:41:51.864Z,280
2017-05-11T14:43:02.883Z,280
2017-05-11T14:44:13.906Z,280
2017-05-11T14:45:24.968Z,285
2017-05-11T14:46:35.982Z,305
2017-05-11T14:47:47.013Z,325
2017-05-11T14:48:58.048Z,345
2017-05-11T14:50:09.067Z,375
2017-05-11T14:51:20.089Z,400
2017-05-11T14:52:31.114Z,425
2017-05-11T14:53:42.137Z,435
2017-05-11T14:54:53.159Z,445
2017-05-11T14:56:04.636Z,440
2017-05-11T14:57:15.669Z,425
2017-05-11T14:58:26.692Z,405
2017-05-11T14:59:38.317Z,390
2017-05-11T15:00:49.334Z,375
2017-05-11T15:02:00.780Z,370
2017-05-11T15:03:11.800Z,370
2017-05-11T15:04:23.006Z,375
2017-05-11T15:05:34.213Z,385
2017-05-11T15:06:45.281Z,390
2017-05-11T15:07:56.486Z,380
2017-05-11T15:09:07.508Z,380
2017-05-11T15:10:18.714Z,380
2017-05-11T15:11:29.739Z,375
2017-05-11T15:12:40.814Z,375
2017-05-11T15:13:51.818Z,370
2017-05-11T15:15:02.827Z,365
2017-05-11T15:16:14.041Z,365
2017-05-11T15:17:25.058Z,365
2017-05-11T15:18:36.067Z,350
2017-05-11T15:19:47.283Z,350
2017-05-11T15:20:58.305Z,325
2017-05-11T15:22:09.790Z,315
2017-05-11T15:23:20.802Z,310
2017-05-11T15:24:31.827Z,300
2017-05-11T15:25:43.049Z,300
2017-05-11T15:26:54.071Z,295
2017-05-11T15:28:05.087Z,285
2017-05-11T15:29:16.159Z,280
2017-05-11T15:30:27.189Z,270
2017-05-11T15:31:38.195Z,255
2017-05-11T15:32:49.217Z,240
2017-05-11T15:34:00.236Z,240
2017-05-11T15:35:11.265Z,235
2017-05-11T15:36:22.279Z,230
2017-05-11T15:37:33.299Z,235
2017-05-11T15:38:44.318Z,240
2017-05-11T15:39:55.389Z,230
2017-05-11T15:41:06.412Z,230
2017-05-11T15:42:17.435Z,225
2017-05-11T15:43:28.503Z,220
2017-05-11T15:44:39.729Z,220
2017-05-11T15:45:50.745Z,220
2017-05-11T15:47:01.970Z,230
2017-05-11T15:48:12.998Z,235
2017-05-11T15:49:24.006Z,240
2017-05-11T15:50:35.280Z,250
2017-05-11T15:51:46.499Z,250
2017-05-11T15:52:57.514Z,250
2017-05-11T15:54:08.748Z,250
2017-05-11T15:55:19.824Z,250
2017-05-11T15:56:30.845Z,250
2017-05-11T15:57:41.861Z,240
2017-05-11T15:58:52.883Z,235
2017-05-11T16:00:04.095Z,225
2017-05-11T16:01:15.106Z,220
2017-05-11T16:02:26.734Z,200
2017-05-11T16:03:37.954Z,200
2017-05-11T16:04:48.977Z,195
2017-05-11T16:06:00.047Z,195
2017-05-11T16:07:11.061Z,200
2017-05-11T16:08:22.064Z,200
2017-05-11T16:09:33.086Z,200
2017-05-11T16:10:44.108Z,200
2017-05-11T16:11:55.188Z,205
2017-05-11T16:13:06.222Z,205
2017-05-11T16:14:17.231Z,210
2017-05-11T16:15:28.454Z,210
2017-05-11T16:16:39.487Z,210
2017-05-11T16:17:50.509Z,215
2017-05-11T16:19:01.521Z,215
2017-05-11T16:20:12.541Z,210
2017-05-11T16:21:23.542Z,210
2017-05-11T16:22:34.773Z,210
2017-05-11T16:23:45.798Z,210